createdAt,value
2023-01-21T00:02:07.691Z,6.90
2023-01-21T00:04:36.927Z,6.90
2023-01-21T00:07:07.511Z,6.90
2023-01-21T00:09:34.895Z,6.90
2023-01-21T00:12:03.006Z,6.90
2023-01-21T00:14:32.825Z,6.90
2023-01-21T00:17:04.986Z,6.90
2023-01-21T00:19:34.482Z,6.90
2023-01-21T00:22:01.730Z,6.90
2023-01-21T00:24:33.359Z,6.90
2023-01-21T00:27:02.980Z,7.00
2023-01-21T00:29:30.266Z,6.90
2023-01-21T00:31:57.860Z,7.00
2023-01-21T00:34:27.774Z,7.00
2023-01-21T00:36:57.768Z,6.90
2023-01-21T00:39:27.627Z,6.90
2023-01-21T00:41:54.884Z,7.00
2023-01-21T00:44:24.574Z,6.90
2023-01-21T00:46:53.970Z,6.90
2023-01-21T00:49:21.321Z,6.90
2023-01-21T00:51:48.609Z,6.90
2023-01-21T00:54:18.333Z,6.90
2023-01-21T00:56:45.778Z,6.90
2023-01-21T00:59:15.696Z,6.90
2023-01-21T01:01:43.568Z,6.90
2023-01-21T01:04:13.814Z,6.90
2023-01-21T01:06:43.083Z,6.90
2023-01-21T01:09:11.969Z,6.90
2023-01-21T01:11:42.077Z,7.00
2023-01-21T01:14:09.518Z,6.90
2023-01-21T01:16:36.984Z,6.90
2023-01-21T01:19:07.314Z,6.90
2023-01-21T01:21:39.993Z,6.90
2023-01-21T01:24:11.367Z,6.90
2023-01-21T01:26:42.368Z,6.90
2023-01-21T01:29:13.789Z,6.90
2023-01-21T01:31:41.287Z,6.90
2023-01-21T01:34:08.952Z,6.90
2023-01-21T01:36:36.431Z,6.90
2023-01-21T01:39:04.940Z,6.90
2023-01-21T01:41:35.159Z,6.90
2023-01-21T01:44:26.175Z,6.90
2023-01-21T01:46:57.977Z,6.90
2023-01-21T01:49:25.170Z,6.90
2023-01-21T01:51:57.211Z,6.90
2023-01-21T01:54:39.329Z,6.90
2023-01-21T01:57:13.016Z,6.90
2023-01-21T01:59:43.591Z,6.90
2023-01-21T02:02:16.925Z,6.90
2023-01-21T02:05:01.443Z,6.90
2023-01-21T02:07:33.161Z,6.90
2023-01-21T02:10:00.753Z,6.90
2023-01-21T02:12:30.443Z,6.90
2023-01-21T02:14:59.826Z,6.90
2023-01-21T02:17:49.864Z,6.90
2023-01-21T02:21:08.204Z,6.90
2023-01-21T02:23:53.516Z,6.90
2023-01-21T02:26:42.368Z,6.90
2023-01-21T02:29:41.603Z,6.90
2023-01-21T02:32:20.723Z,6.90
2023-01-21T02:35:18.227Z,6.90
2023-01-21T02:37:50.970Z,6.90
2023-01-21T02:40:34.920Z,6.90
2023-01-21T02:43:18.412Z,6.90
2023-01-21T02:46:24.506Z,6.80
2023-01-21T02:49:10.012Z,6.80
2023-01-21T02:51:39.390Z,6.80
2023-01-21T02:54:35.976Z,6.80
2023-01-21T02:57:04.171Z,6.80
2023-01-21T02:59:34.615Z,6.80
2023-01-21T03:02:23.244Z,6.80
2023-01-21T03:04:50.623Z,6.80
2023-01-21T03:07:37.111Z,6.80
2023-01-21T03:10:31.721Z,6.80
2023-01-21T03:13:13.441Z,6.80
2023-01-21T03:16:12.875Z,6.80
2023-01-21T03:18:48.031Z,6.80
2023-01-21T03:21:26.336Z,6.80
2023-01-21T03:23:55.568Z,6.90
2023-01-21T03:26:32.097Z,6.80
2023-01-21T03:29:04.911Z,6.80
2023-01-21T03:31:35.118Z,6.80
2023-01-21T03:34:12.437Z,6.80
2023-01-21T03:36:45.444Z,6.80
2023-01-21T03:39:24.748Z,6.90
2023-01-21T03:41:54.696Z,6.80
2023-01-21T03:44:24.609Z,6.80
2023-01-21T03:47:08.653Z,6.80
2023-01-21T03:49:41.528Z,6.80
2023-01-21T03:52:12.188Z,6.80
2023-01-21T03:54:42.782Z,6.80
2023-01-21T03:57:10.054Z,6.80
2023-01-21T03:59:39.475Z,6.80
2023-01-21T04:02:06.885Z,6.80
2023-01-21T04:04:36.833Z,6.80
2023-01-21T04:07:07.171Z,6.80
2023-01-21T04:09:34.442Z,6.80
2023-01-21T04:12:01.801Z,6.80
2023-01-21T04:14:29.213Z,6.80
2023-01-21T04:16:59.635Z,6.80
2023-01-21T04:19:26.986Z,6.80
2023-01-21T04:21:54.273Z,6.80
2023-01-21T04:24:23.884Z,6.80
2023-01-21T04:26:54.140Z,6.80
2023-01-21T04:29:23.867Z,6.80
2023-01-21T04:31:51.254Z,6.80
2023-01-21T04:34:18.559Z,6.80
2023-01-21T04:36:46.736Z,6.80
2023-01-21T04:39:14.045Z,6.80
2023-01-21T04:41:41.388Z,6.80
2023-01-21T04:44:08.751Z,6.80
2023-01-21T04:46:36.098Z,6.80
2023-01-21T04:49:03.575Z,6.80
2023-01-21T04:51:30.871Z,6.80
2023-01-21T04:54:00.453Z,6.80
2023-01-21T04:56:30.214Z,6.80
2023-01-21T04:58:57.465Z,6.80
2023-01-21T05:01:30.156Z,6.80
2023-01-21T05:03:57.573Z,6.80
2023-01-21T05:06:24.892Z,6.80
2023-01-21T05:08:54.647Z,6.80
2023-01-21T05:11:26.729Z,6.80
2023-01-21T05:13:54.051Z,6.80
2023-01-21T05:16:23.754Z,6.80
2023-01-21T05:18:51.062Z,6.80
2023-01-21T05:21:20.567Z,6.80
2023-01-21T05:23:52.370Z,6.80
2023-01-21T05:26:19.530Z,6.80
2023-01-21T05:28:46.722Z,6.80
2023-01-21T05:31:16.532Z,6.80
2023-01-21T05:33:46.013Z,6.80
2023-01-21T05:36:13.569Z,6.80
2023-01-21T05:38:43.321Z,6.70
2023-01-21T05:41:16.222Z,6.70
2023-01-21T05:43:43.496Z,6.70
2023-01-21T05:46:10.798Z,6.70
2023-01-21T05:48:40.468Z,6.70
2023-01-21T05:51:07.716Z,6.70
2023-01-21T05:53:35.034Z,6.70
2023-01-21T05:56:02.360Z,6.70
2023-01-21T05:58:29.682Z,6.70
2023-01-21T06:00:58.434Z,6.70
2023-01-21T06:03:26.666Z,6.70
2023-01-21T06:05:56.382Z,6.70
2023-01-21T06:08:25.913Z,6.60
2023-01-21T06:10:56.775Z,6.70
2023-01-21T06:13:26.784Z,6.70
2023-01-21T06:15:58.046Z,6.70
2023-01-21T06:18:27.954Z,6.70
2023-01-21T06:20:58.721Z,6.70
2023-01-21T06:23:26.363Z,6.70
2023-01-21T06:25:58.677Z,6.70
2023-01-21T06:28:26.006Z,6.70
2023-01-21T06:30:56.284Z,6.70
2023-01-21T06:33:26.171Z,6.70
2023-01-21T06:35:55.971Z,6.70
2023-01-21T06:38:23.307Z,6.70
2023-01-21T06:40:50.815Z,6.60
2023-01-21T06:43:22.505Z,6.60
2023-01-21T06:45:54.193Z,6.60
2023-01-21T06:48:24.240Z,6.60
2023-01-21T06:50:51.575Z,6.60
2023-01-21T06:53:18.932Z,6.60
2023-01-21T06:55:48.125Z,6.60
2023-01-21T06:58:17.847Z,6.60
2023-01-21T07:00:45.169Z,6.60
2023-01-21T07:03:12.451Z,6.60
2023-01-21T07:05:39.755Z,6.60
2023-01-21T07:08:07.203Z,6.60
2023-01-21T07:10:36.759Z,6.60
2023-01-21T07:13:06.443Z,6.60
2023-01-21T07:15:35.886Z,6.60
2023-01-21T07:18:03.241Z,6.60
2023-01-21T07:20:34.214Z,6.60
2023-01-21T07:23:06.222Z,6.60
2023-01-21T07:25:36.202Z,6.60
2023-01-21T07:28:08.197Z,6.60
2023-01-21T07:30:35.546Z,6.60
2023-01-21T07:33:09.798Z,6.60
2023-01-21T07:35:39.338Z,6.60
2023-01-21T07:38:07.390Z,6.60
2023-01-21T07:40:38.203Z,6.60
2023-01-21T07:43:05.591Z,6.60
2023-01-21T07:45:33.092Z,6.60
2023-01-21T07:48:00.535Z,6.60
2023-01-21T07:50:28.081Z,6.60
2023-01-21T07:52:55.665Z,6.60
2023-01-21T07:55:23.183Z,6.60
2023-01-21T07:57:50.543Z,6.60
2023-01-21T08:00:24.106Z,6.60
2023-01-21T08:02:54.047Z,6.60
2023-01-21T08:05:25.524Z,6.60
2023-01-21T08:07:58.514Z,6.60
2023-01-21T08:10:26.174Z,6.60
2023-01-21T08:12:53.531Z,6.60
2023-01-21T08:15:20.858Z,6.60
2023-01-21T08:17:48.889Z,6.70
2023-01-21T08:20:18.709Z,6.70
2023-01-21T08:22:46.177Z,6.70
2023-01-21T08:25:13.614Z,6.60
2023-01-21T08:27:45.875Z,6.70
2023-01-21T08:30:13.552Z,6.70
2023-01-21T08:32:40.881Z,6.70
2023-01-21T08:35:08.866Z,6.70
2023-01-21T08:37:41.169Z,6.70
2023-01-21T08:40:09.184Z,6.70
2023-01-21T08:42:36.727Z,6.70
2023-01-21T08:45:07.475Z,6.70
2023-01-21T08:47:35.518Z,6.70
2023-01-21T08:50:03.508Z,6.70
2023-01-21T08:52:33.112Z,6.70
2023-01-21T08:55:00.556Z,6.70
2023-01-21T08:57:30.548Z,6.70
2023-01-21T08:59:58.082Z,6.70
2023-01-21T09:02:25.645Z,6.70
2023-01-21T09:04:53.039Z,6.70
2023-01-21T09:07:20.726Z,6.70
2023-01-21T09:09:48.960Z,6.70
2023-01-21T09:12:16.629Z,6.70
2023-01-21T09:14:49.623Z,6.70
2023-01-21T09:17:17.170Z,6.70
2023-01-21T09:19:44.560Z,6.70
2023-01-21T09:22:11.984Z,6.80
2023-01-21T09:24:39.487Z,6.70
2023-01-21T09:27:10.384Z,6.80
2023-01-21T09:29:37.720Z,6.70
2023-01-21T09:32:05.453Z,6.70
2023-01-21T09:34:35.485Z,6.80
2023-01-21T09:37:05.081Z,6.70
2023-01-21T09:39:37.601Z,6.70
2023-01-21T09:42:05.041Z,6.70
2023-01-21T09:44:44.023Z,6.70
2023-01-21T09:47:17.488Z,6.80
2023-01-21T09:49:51.365Z,6.80
2023-01-21T09:52:27.132Z,6.70
2023-01-21T09:54:58.434Z,6.80
2023-01-21T09:58:10.037Z,6.80
2023-01-21T10:00:43.983Z,6.80
2023-01-21T10:03:29.396Z,6.80
2023-01-21T10:06:13.395Z,6.80
2023-01-21T10:09:02.247Z,6.80
2023-01-21T10:11:32.650Z,6.80
2023-01-21T10:14:45.752Z,6.80
2023-01-21T10:18:00.990Z,6.80
2023-01-21T10:20:28.229Z,6.80
2023-01-21T10:23:02.397Z,6.80
2023-01-21T10:25:35.957Z,6.80
2023-01-21T10:28:14.805Z,6.80
2023-01-21T10:30:50.051Z,6.80
2023-01-21T10:33:24.199Z,6.90
2023-01-21T10:36:13.335Z,6.90
2023-01-21T10:38:57.715Z,6.90
2023-01-21T10:41:45.316Z,6.90
2023-01-21T10:44:21.451Z,7.00
2023-01-21T10:47:03.137Z,6.90
2023-01-21T10:49:49.089Z,7.00
2023-01-21T10:52:45.131Z,7.00
2023-01-21T10:55:35.245Z,7.00
2023-01-21T10:58:05.997Z,7.00
2023-01-21T11:00:43.959Z,7.00
2023-01-21T11:03:22.481Z,7.00
2023-01-21T11:05:55.328Z,7.00
2023-01-21T11:08:25.580Z,7.10
2023-01-21T11:10:55.402Z,7.10
2023-01-21T11:13:23.623Z,7.00
2023-01-21T11:15:57.917Z,7.10
2023-01-21T11:18:45.767Z,7.10
2023-01-21T11:21:24.923Z,7.10
2023-01-21T11:24:00.464Z,7.10
2023-01-21T11:26:37.124Z,7.10
2023-01-21T11:29:15.962Z,7.10
2023-01-21T11:31:48.503Z,7.10
2023-01-21T11:34:21.105Z,7.10
2023-01-21T11:37:04.132Z,7.10
2023-01-21T11:39:38.664Z,7.20
2023-01-21T11:42:15.787Z,7.10
2023-01-21T11:44:56.674Z,7.10
2023-01-21T11:47:38.281Z,7.10
2023-01-21T11:50:13.872Z,7.10
2023-01-21T11:52:44.082Z,7.20
2023-01-21T11:55:25.420Z,7.20
2023-01-21T11:57:55.988Z,7.20
2023-01-21T12:00:27.614Z,7.20
2023-01-21T12:03:00.327Z,7.20
2023-01-21T12:05:49.571Z,7.20
2023-01-21T12:08:32.692Z,7.20
2023-01-21T12:11:04.692Z,7.20
2023-01-21T12:13:49.272Z,7.20
2023-01-21T12:16:35.317Z,7.20
2023-01-21T12:19:27.473Z,7.20
2023-01-21T12:22:09.877Z,7.20
2023-01-21T12:24:40.205Z,7.20
2023-01-21T12:27:24.016Z,7.20
2023-01-21T12:30:20.606Z,7.20
2023-01-21T12:33:09.700Z,7.20
2023-01-21T12:35:41.998Z,7.20
2023-01-21T12:38:26.725Z,7.20
2023-01-21T12:40:57.302Z,7.20
2023-01-21T12:43:38.732Z,7.20
2023-01-21T12:46:36.990Z,7.20
2023-01-21T12:49:19.764Z,7.20
2023-01-21T12:52:01.018Z,7.30
2023-01-21T12:54:48.473Z,7.30
2023-01-21T12:57:27.286Z,7.30
2023-01-21T13:00:06.065Z,7.30
2023-01-21T13:02:52.895Z,7.40
2023-01-21T13:05:35.377Z,7.30
2023-01-21T13:08:18.013Z,7.30
2023-01-21T13:10:50.666Z,7.30
2023-01-21T13:13:35.449Z,7.40
2023-01-21T13:16:07.755Z,7.40
2023-01-21T13:18:38.507Z,7.40
2023-01-21T13:21:28.766Z,7.30
2023-01-21T13:24:17.065Z,7.30
2023-01-21T13:26:57.903Z,7.30
2023-01-21T13:29:53.395Z,7.30
2023-01-21T13:32:31.974Z,7.30
2023-01-21T13:35:29.835Z,7.40
2023-01-21T13:38:29.546Z,7.30
2023-01-21T13:41:15.374Z,7.30
2023-01-21T13:43:55.287Z,7.30
2023-01-21T13:46:46.886Z,7.30
2023-01-21T13:49:41.697Z,7.30
2023-01-21T13:52:49.976Z,7.30
2023-01-21T13:55:28.035Z,7.30
2023-01-21T13:58:29.376Z,7.30
2023-01-21T14:01:03.565Z,7.30
2023-01-21T14:03:39.739Z,7.30
2023-01-21T14:09:45.691Z,7.30
2023-01-21T14:12:59.540Z,7.20
2023-01-21T14:15:34.608Z,7.30
2023-01-21T14:18:54.972Z,7.20
2023-01-21T14:21:42.767Z,7.20
2023-01-21T14:24:15.616Z,7.20
2023-01-21T14:26:45.591Z,7.10
2023-01-21T14:29:32.127Z,7.10
2023-01-21T14:32:19.409Z,7.10
2023-01-21T14:35:02.512Z,7.10
2023-01-21T14:37:44.240Z,7.10
2023-01-21T14:40:27.454Z,7.10
2023-01-21T14:42:59.214Z,7.10
2023-01-21T14:45:48.407Z,7.10
2023-01-21T14:48:29.782Z,7.10
2023-01-21T14:51:21.400Z,7.10
2023-01-21T14:53:51.146Z,7.10
2023-01-21T14:56:37.843Z,7.00
2023-01-21T14:59:10.992Z,7.00
2023-01-21T15:01:46.094Z,7.00
2023-01-21T15:04:42.517Z,6.90
2023-01-21T15:07:22.051Z,6.90
2023-01-21T15:09:56.150Z,6.90
2023-01-21T15:12:28.793Z,6.90
2023-01-21T15:15:02.250Z,6.90
2023-01-21T15:17:46.812Z,6.80
2023-01-21T15:20:39.843Z,6.80
2023-01-21T15:23:19.234Z,6.80
2023-01-21T15:26:07.599Z,6.80
2023-01-21T15:28:56.240Z,6.80
2023-01-21T15:31:23.850Z,6.80
2023-01-21T15:34:04.058Z,6.80
2023-01-21T15:36:44.207Z,6.80
2023-01-21T15:39:23.454Z,6.80
2023-01-21T15:42:18.940Z,6.80
2023-01-21T15:45:09.860Z,6.80
2023-01-21T15:48:41.624Z,6.80
2023-01-21T15:51:29.658Z,6.80
2023-01-21T15:54:05.579Z,6.90
2023-01-21T15:56:45.067Z,6.90
2023-01-21T15:59:18.445Z,6.80
2023-01-21T16:01:49.125Z,6.80
2023-01-21T16:04:16.455Z,6.80
2023-01-21T16:06:46.403Z,6.80
2023-01-21T16:09:40.507Z,6.80
2023-01-21T16:12:22.610Z,6.80
2023-01-21T16:14:59.841Z,6.70
2023-01-21T16:17:48.787Z,6.70
2023-01-21T16:20:17.430Z,6.70
2023-01-21T16:22:52.102Z,6.70
2023-01-21T16:25:24.132Z,6.70
2023-01-21T16:27:55.775Z,6.70
2023-01-21T16:30:30.319Z,6.70
2023-01-21T16:33:10.219Z,6.70
2023-01-21T16:35:50.324Z,6.60
2023-01-21T16:38:21.275Z,6.60
2023-01-21T16:40:50.883Z,6.60
2023-01-21T16:43:24.114Z,6.60
2023-01-21T16:45:54.100Z,6.60
2023-01-21T16:48:27.944Z,6.60
2023-01-21T16:50:55.717Z,6.60
2023-01-21T16:53:27.311Z,6.60
2023-01-21T16:55:57.007Z,6.60
2023-01-21T16:58:35.127Z,6.60
2023-01-21T17:01:06.083Z,6.60
2023-01-21T17:03:34.080Z,6.60
2023-01-21T17:06:09.984Z,6.60
2023-01-21T17:08:40.446Z,6.60
2023-01-21T17:11:13.974Z,6.60
2023-01-21T17:13:45.463Z,6.60
2023-01-21T17:16:34.405Z,6.60
2023-01-21T17:19:05.813Z,6.60
2023-01-21T17:21:46.804Z,6.60
2023-01-21T17:24:40.449Z,6.60
2023-01-21T17:27:11.364Z,6.60
2023-01-21T17:29:38.951Z,6.60
2023-01-21T17:32:24.536Z,6.60
2023-01-21T17:35:16.789Z,6.60
2023-01-21T17:37:56.401Z,6.60
2023-01-21T17:40:37.667Z,6.60
2023-01-21T17:43:24.840Z,6.60
2023-01-21T17:45:55.046Z,6.60
2023-01-21T17:48:34.202Z,6.60
2023-01-21T17:51:07.345Z,6.60
2023-01-21T17:53:44.212Z,6.60
2023-01-21T17:56:13.549Z,6.60
2023-01-21T17:58:53.379Z,6.60
2023-01-21T18:01:21.532Z,6.60
2023-01-21T18:04:01.168Z,6.60
2023-01-21T18:06:33.336Z,6.60
2023-01-21T18:09:02.243Z,6.60
2023-01-21T18:11:29.675Z,6.60
2023-01-21T18:13:58.255Z,6.60
2023-01-21T18:16:28.883Z,6.60
2023-01-21T18:18:56.551Z,6.60
2023-01-21T18:21:23.920Z,6.50
2023-01-21T18:23:53.528Z,6.60
2023-01-21T18:26:29.976Z,6.60
2023-01-21T18:28:57.467Z,6.50
2023-01-21T18:31:25.110Z,6.60
2023-01-21T18:33:54.683Z,6.60
2023-01-21T18:36:23.329Z,6.60
2023-01-21T18:38:50.824Z,6.60
2023-01-21T18:41:20.967Z,6.60
2023-01-21T18:43:50.755Z,6.60
2023-01-21T18:46:20.065Z,6.60
2023-01-21T18:48:49.849Z,6.50
2023-01-21T18:51:17.817Z,6.60
2023-01-21T18:53:45.330Z,6.60
2023-01-21T18:56:16.376Z,6.60
2023-01-21T18:58:43.809Z,6.50
2023-01-21T19:01:23.177Z,6.50
2023-01-21T19:03:55.026Z,6.50
2023-01-21T19:06:24.162Z,6.50
2023-01-21T19:08:59.148Z,6.50
2023-01-21T19:11:27.219Z,6.50
2023-01-21T19:13:54.581Z,6.50
2023-01-21T19:16:57.520Z,6.50
2023-01-21T19:19:25.500Z,6.50
2023-01-21T19:21:55.517Z,6.50
2023-01-21T19:24:22.828Z,6.50
2023-01-21T19:26:51.258Z,6.50
2023-01-21T19:29:25.045Z,6.50
2023-01-21T19:31:54.909Z,6.50
2023-01-21T19:34:25.086Z,6.50
2023-01-21T19:36:53.403Z,6.50
2023-01-21T19:39:31.518Z,6.50
2023-01-21T19:42:07.986Z,6.50
2023-01-21T19:44:36.053Z,6.50
2023-01-21T19:47:06.589Z,6.50
2023-01-21T19:49:34.168Z,6.50
2023-01-21T19:52:01.700Z,6.50
2023-01-21T19:54:36.267Z,6.50
2023-01-21T19:57:03.671Z,6.50
2023-01-21T19:59:34.814Z,6.50
2023-01-21T20:02:04.477Z,6.50
2023-01-21T20:04:32.110Z,6.50
2023-01-21T20:06:59.515Z,6.50
2023-01-21T20:09:29.985Z,6.50
2023-01-21T20:11:57.560Z,6.60
2023-01-21T20:14:25.001Z,6.50
2023-01-21T20:16:56.638Z,6.50
2023-01-21T20:19:24.387Z,6.50
2023-01-21T20:22:01.611Z,6.50
2023-01-21T20:24:34.204Z,6.50
2023-01-21T20:27:04.686Z,6.50
2023-01-21T20:29:33.649Z,6.50
2023-01-21T20:32:00.979Z,6.50
2023-01-21T20:34:43.527Z,6.50
2023-01-21T20:37:15.313Z,6.50
2023-01-21T20:39:42.579Z,6.50
2023-01-21T20:42:12.236Z,6.60
2023-01-21T20:44:39.892Z,6.60
2023-01-21T20:47:09.061Z,6.60
2023-01-21T20:49:36.374Z,6.60
2023-01-21T20:52:03.812Z,6.50
2023-01-21T20:54:31.163Z,6.50
2023-01-21T20:57:01.283Z,6.50
2023-01-21T20:59:28.697Z,6.50
2023-01-21T21:02:00.620Z,6.50
2023-01-21T21:04:30.267Z,6.50
2023-01-21T21:06:57.546Z,6.50
2023-01-21T21:09:24.795Z,6.50
2023-01-21T21:11:52.143Z,6.50
2023-01-21T21:14:20.667Z,6.40
2023-01-21T21:16:48.761Z,6.50
2023-01-21T21:19:16.501Z,6.50
2023-01-21T21:21:46.295Z,6.50
2023-01-21T21:24:13.629Z,6.50
2023-01-21T21:26:41.413Z,6.40
2023-01-21T21:29:13.334Z,6.50
2023-01-21T21:31:42.917Z,6.40
2023-01-21T21:34:10.603Z,6.50
2023-01-21T21:36:48.165Z,6.50
2023-01-21T21:39:19.251Z,6.40
2023-01-21T21:42:05.545Z,6.40
2023-01-21T21:44:33.476Z,6.50
2023-01-21T21:47:21.771Z,6.40
2023-01-21T21:49:49.353Z,6.40
2023-01-21T21:52:18.713Z,6.40
2023-01-21T21:54:50.889Z,6.40
2023-01-21T21:57:20.893Z,6.40
2023-01-21T21:59:48.183Z,6.40
2023-01-21T22:02:18.241Z,6.50
2023-01-21T22:04:53.205Z,6.40
2023-01-21T22:07:20.584Z,6.40
2023-01-21T22:09:50.196Z,6.40
2023-01-21T22:12:17.534Z,6.40
2023-01-21T22:14:44.875Z,6.40
2023-01-21T22:17:15.232Z,6.40
2023-01-21T22:19:42.612Z,6.40
2023-01-21T22:22:10.041Z,6.40
2023-01-21T22:24:37.451Z,6.40
2023-01-21T22:27:08.265Z,6.40
2023-01-21T22:29:38.166Z,6.40
2023-01-21T22:32:06.392Z,6.40
2023-01-21T22:34:36.911Z,6.40
2023-01-21T22:37:04.226Z,6.40
2023-01-21T22:39:33.415Z,6.40
2023-01-21T22:42:03.084Z,6.40
2023-01-21T22:44:30.553Z,6.40
2023-01-21T22:47:00.058Z,6.40
2023-01-21T22:49:27.382Z,6.40
2023-01-21T22:51:56.780Z,6.30
2023-01-21T22:54:24.710Z,6.30
2023-01-21T22:56:53.187Z,6.30
2023-01-21T22:59:22.756Z,6.30
2023-01-21T23:01:54.991Z,6.30
2023-01-21T23:04:27.017Z,6.30
2023-01-21T23:06:55.175Z,6.30
2023-01-21T23:09:31.908Z,6.30
2023-01-21T23:11:59.417Z,6.30
2023-01-21T23:14:26.829Z,6.30
2023-01-21T23:16:54.146Z,6.40
2023-01-21T23:19:32.512Z,6.40
2023-01-21T23:22:05.289Z,6.40
2023-01-21T23:24:34.134Z,6.40
2023-01-21T23:27:01.467Z,6.40
2023-01-21T23:29:28.747Z,6.40
2023-01-21T23:31:57.778Z,6.40
2023-01-21T23:34:25.148Z,6.40
2023-01-21T23:36:54.949Z,6.40
2023-01-21T23:39:24.524Z,6.40
2023-01-21T23:41:54.997Z,6.40
2023-01-21T23:44:25.472Z,6.40
2023-01-21T23:46:53.053Z,6.40
2023-01-21T23:49:20.449Z,6.40
2023-01-21T23:51:48.196Z,6.40
2023-01-21T23:54:16.186Z,6.40
2023-01-21T23:56:45.705Z,6.40
2023-01-21T23:59:13.034Z,6.40
